Time;durP1;ratioP1;P1;durP2;ratioP2;P2;SDS_P1;SDS_P2;PMS_P1;PMS_P2;Temp;Humidity;BMP_temperature;BMP_pressure;BME280_temperature;BME280_humidity;BME280_pressure;Samples;Min_cycle;Max_cycle;Signal;HPM_P1;HPM_P2
2021/09/08 00:04:31;;;;;;;9.77;8.10;;;21.60;69.40;;;;;;10417982;28;20394;-57
2021/09/08 00:09:32;;;;;;;8.93;8.00;;;21.60;69.40;;;;;;10418189;28;20082;-57
2021/09/08 00:14:33;;;;;;;11.07;8.68;;;21.60;69.40;;;;;;10416332;28;20551;-58
2021/09/08 00:19:34;;;;;;;9.93;8.48;;;21.60;69.30;;;;;;10420231;28;20033;-57
2021/09/08 00:24:34;;;;;;;9.38;7.82;;;21.60;69.30;;;;;;10417380;28;20030;-58
2021/09/08 00:29:35;;;;;;;9.50;7.82;;;21.60;69.40;;;;;;10417252;28;20060;-57
2021/09/08 00:34:36;;;;;;;10.82;8.88;;;21.60;69.30;;;;;;10416940;28;20044;-58
2021/09/08 00:39:39;;;;;;;10.63;8.32;;;21.60;69.30;;;;;;10416753;28;20104;-58
2021/09/08 00:44:41;;;;;;;8.00;7.18;;;21.60;69.30;;;;;;10416892;28;20087;-58
2021/09/08 00:49:44;;;;;;;9.27;7.97;;;21.60;69.20;;;;;;10416349;28;20033;-56
2021/09/08 00:54:50;;;;;;;9.70;7.82;;;21.60;69.20;;;;;;10408802;28;20036;-57
2021/09/08 00:59:50;;;;;;;9.55;8.15;;;21.60;69.20;;;;;;10415921;28;20033;-57
2021/09/08 01:04:51;;;;;;;8.63;7.60;;;21.60;69.30;;;;;;10415387;28;20504;-57
2021/09/08 01:09:52;;;;;;;9.38;7.40;;;21.60;69.30;;;;;;10414593;28;20060;-58
2021/09/08 01:14:53;;;;;;;10.50;7.93;;;21.60;69.20;;;;;;10398312;28;20045;-57
2021/09/08 01:19:53;;;;;;;10.18;8.35;;;21.60;69.20;;;;;;10418291;28;20474;-57
2021/09/08 01:24:54;;;;;;;9.40;7.57;;;21.60;69.20;;;;;;10415079;28;20500;-58
2021/09/08 01:29:55;;;;;;;10.65;7.68;;;21.50;69.10;;;;;;10415006;28;20477;-57
2021/09/08 01:34:55;;;;;;;12.07;8.35;;;21.50;69.20;;;;;;10416776;28;20026;-58
2021/09/08 01:39:56;;;;;;;10.80;8.35;;;21.50;69.10;;;;;;10425695;28;20077;-58
2021/09/08 01:44:57;;;;;;;9.20;8.20;;;21.50;69.10;;;;;;10413909;28;20112;-57
2021/09/08 01:49:57;;;;;;;8.70;7.80;;;21.50;69.10;;;;;;10414193;28;20537;-57
2021/09/08 01:54:58;;;;;;;9.13;7.90;;;21.50;69.00;;;;;;10414211;28;20112;-57
2021/09/08 01:59:59;;;;;;;10.00;7.55;;;21.50;69.10;;;;;;10414473;28;20726;-58
2021/09/08 02:05:00;;;;;;;8.13;7.15;;;21.50;69.20;;;;;;10412272;28;20030;-57
2021/09/08 02:10:01;;;;;;;8.95;7.78;;;21.50;69.10;;;;;;10413703;28;20052;-57
2021/09/08 02:15:02;;;;;;;9.48;8.45;;;21.50;69.10;;;;;;10412620;28;20034;-57
2021/09/08 02:20:04;;;;;;;8.93;7.60;;;21.50;69.10;;;;;;10416246;28;20069;-57
2021/09/08 02:25:06;;;;;;;8.35;7.43;;;21.50;69.10;;;;;;10413449;28;20029;-57
2021/09/08 02:30:11;;;;;;;9.45;7.03;;;21.50;69.00;;;;;;10413751;28;20029;-57
2021/09/08 02:35:12;;;;;;;8.50;7.43;;;21.40;69.00;;;;;;10413538;28;20036;-58
2021/09/08 02:40:13;;;;;;;9.50;7.95;;;21.40;69.00;;;;;;10413452;28;20064;-56
2021/09/08 02:45:14;;;;;;;9.32;6.93;;;21.40;69.00;;;;;;10413175;28;20038;-58
2021/09/08 02:50:14;;;;;;;8.52;7.30;;;21.40;69.00;;;;;;10413392;28;20393;-57
2021/09/08 02:55:15;;;;;;;9.00;7.35;;;21.40;68.90;;;;;;10413518;28;20036;-57
2021/09/08 03:00:17;;;;;;;9.90;7.47;;;21.40;68.90;;;;;;10420625;28;20106;-57
2021/09/08 03:05:18;;;;;;;9.43;8.05;;;21.40;68.80;;;;;;10419162;28;20113;-57
2021/09/08 03:10:19;;;;;;;9.55;7.78;;;21.40;68.90;;;;;;10420485;28;20414;-57
2021/09/08 03:15:20;;;;;;;8.88;7.32;;;21.40;69.00;;;;;;10418916;28;20072;-58
2021/09/08 03:20:21;;;;;;;9.43;6.97;;;21.40;69.00;;;;;;10421919;28;20029;-58
2021/09/08 03:25:21;;;;;;;9.32;7.90;;;21.40;68.80;;;;;;10419395;28;20171;-58
2021/09/08 03:30:23;;;;;;;8.93;8.02;;;21.40;68.80;;;;;;10419941;28;20113;-57
2021/09/08 03:35:23;;;;;;;9.95;8.18;;;21.40;68.80;;;;;;10419443;28;20037;-58
2021/09/08 03:40:24;;;;;;;8.77;7.88;;;21.30;68.80;;;;;;10419170;28;20128;-58
2021/09/08 03:45:25;;;;;;;8.68;6.97;;;21.40;68.80;;;;;;10419054;28;20494;-57
2021/09/08 03:50:26;;;;;;;8.45;7.63;;;21.30;68.80;;;;;;10419123;28;20082;-57
2021/09/08 03:55:27;;;;;;;8.65;7.07;;;21.30;68.70;;;;;;10417575;28;20037;-57
2021/09/08 04:00:27;;;;;;;7.43;6.63;;;21.40;68.70;;;;;;10418664;28;20545;-57
2021/09/08 04:05:28;;;;;;;10.07;7.53;;;21.40;68.70;;;;;;10418002;28;20025;-57
2021/09/08 04:10:29;;;;;;;8.52;7.40;;;21.30;68.50;;;;;;10417865;28;20092;-59
2021/09/08 04:15:29;;;;;;;7.93;7.05;;;21.30;68.60;;;;;;10417208;28;20039;-57
2021/09/08 04:20:30;;;;;;;8.38;7.18;;;21.30;68.60;;;;;;10417040;28;20057;-57
2021/09/08 04:25:31;;;;;;;9.23;7.80;;;21.30;68.60;;;;;;10413355;28;20521;-57
2021/09/08 04:30:32;;;;;;;8.27;7.35;;;21.30;68.60;;;;;;10429233;28;20042;-58
2021/09/08 04:35:34;;;;;;;8.05;7.25;;;21.30;68.60;;;;;;10416137;28;20043;-56
2021/09/08 04:40:35;;;;;;;9.32;7.47;;;21.30;68.60;;;;;;10415729;28;20576;-57
2021/09/08 04:45:36;;;;;;;9.88;7.45;;;21.30;68.50;;;;;;10415318;28;20128;-55
2021/09/08 04:50:36;;;;;;;8.30;6.88;;;21.30;68.50;;;;;;10415735;28;20418;-56
2021/09/08 04:55:37;;;;;;;7.60;6.25;;;21.20;68.40;;;;;;10413251;28;20119;-54
2021/09/08 05:00:38;;;;;;;8.52;7.13;;;21.30;68.30;;;;;;10408903;28;20490;-55
2021/09/08 05:05:39;;;;;;;7.85;6.63;;;21.20;68.10;;;;;;10415833;28;20454;-55
2021/09/08 05:10:40;;;;;;;9.25;7.35;;;21.20;68.30;;;;;;10415891;28;20049;-52
2021/09/08 05:15:40;;;;;;;10.27;7.30;;;21.20;68.30;;;;;;10415455;28;20067;-50
2021/09/08 05:20:41;;;;;;;9.30;6.70;;;21.20;68.30;;;;;;10417331;28;20025;-55
2021/09/08 05:25:42;;;;;;;8.65;7.72;;;21.20;68.70;;;;;;10413646;28;20021;-53
2021/09/08 05:30:42;;;;;;;9.85;7.47;;;21.30;68.60;;;;;;10414917;28;20057;-49
2021/09/08 05:35:43;;;;;;;10.57;7.20;;;21.20;68.70;;;;;;10413626;28;20033;-53
2021/09/08 05:40:44;;;;;;;11.82;8.20;;;21.30;69.40;;;;;;10414877;28;20033;-48
2021/09/08 05:45:44;;;;;;;12.40;7.18;;;21.30;69.20;;;;;;10414279;28;20049;-49
2021/09/08 05:50:45;;;;;;;13.25;7.20;;;21.30;69.50;;;;;;10411430;28;20086;-50
2021/09/08 05:55:46;;;;;;;17.92;7.90;;;21.30;69.60;;;;;;10412795;28;20033;-48
2021/09/08 06:00:46;;;;;;;16.73;8.13;;;21.30;69.60;;;;;;10414212;28;20040;-47
2021/09/08 06:05:47;;;;;;;24.50;8.65;;;21.30;69.60;;;;;;10414109;28;20184;-45
2021/09/08 06:10:48;;;;;;;19.20;7.97;;;21.30;69.20;;;;;;10412566;28;20026;-52
2021/09/08 06:15:49;;;;;;;25.55;8.98;;;21.30;68.90;;;;;;10413895;28;20036;-46
2021/09/08 06:20:50;;;;;;;18.92;8.18;;;21.30;69.00;;;;;;10415259;28;20036;-46
2021/09/08 06:25:51;;;;;;;15.68;8.63;;;21.30;68.90;;;;;;10411012;28;20105;-48
2021/09/08 06:30:51;;;;;;;19.60;7.28;;;21.30;69.00;;;;;;10413741;28;20116;-51
2021/09/08 06:35:52;;;;;;;16.50;7.70;;;21.30;68.90;;;;;;10417409;28;20029;-47
2021/09/08 06:40:55;;;;;;;20.00;7.97;;;21.30;69.00;;;;;;10420013;28;20073;-50
2021/09/08 06:45:56;;;;;;;14.13;7.60;;;21.20;69.10;;;;;;10420092;28;20068;-47
2021/09/08 06:50:57;;;;;;;13.60;7.28;;;21.20;68.80;;;;;;10418115;28;20025;-50
2021/09/08 06:55:58;;;;;;;13.48;7.22;;;21.30;68.80;;;;;;10417702;28;20049;-47
2021/09/08 07:00:58;;;;;;;14.25;7.32;;;21.20;68.90;;;;;;10418525;28;20021;-51
2021/09/08 07:05:59;;;;;;;24.30;9.10;;;21.20;68.90;;;;;;10418775;28;20472;-46
2021/09/08 07:11:00;;;;;;;19.88;8.93;;;21.30;69.00;;;;;;10420521;28;20068;-47
2021/09/08 07:16:00;;;;;;;17.27;9.45;;;21.30;69.20;;;;;;10419455;28;20482;-46
2021/09/08 07:21:02;;;;;;;17.77;8.88;;;21.30;69.80;;;;;;10422255;28;20126;-48
2021/09/08 07:26:03;;;;;;;23.85;8.60;;;21.30;69.70;;;;;;10419615;28;20057;-46
2021/09/08 07:31:03;;;;;;;15.73;8.27;;;21.30;69.30;;;;;;10399819;28;20101;-47
2021/09/08 07:36:04;;;;;;;17.20;7.80;;;21.30;69.30;;;;;;10415884;28;20104;-49
2021/09/08 07:41:05;;;;;;;17.63;7.60;;;21.30;69.70;;;;;;10417721;28;20086;-51
2021/09/08 07:46:05;;;;;;;16.25;8.32;;;21.30;69.90;;;;;;10419191;28;20113;-48
2021/09/08 07:51:07;;;;;;;19.55;8.98;;;21.30;70.00;;;;;;10418636;28;20114;-46
2021/09/08 07:56:08;;;;;;;22.67;7.80;;;21.30;70.00;;;;;;10417616;28;20017;-48
2021/09/08 08:01:08;;;;;;;22.08;9.20;;;21.40;70.40;;;;;;10418461;28;20432;-47
2021/09/08 08:06:09;;;;;;;19.55;7.63;;;21.40;70.50;;;;;;10417598;28;20112;-46
2021/09/08 08:11:10;;;;;;;13.85;8.63;;;21.40;70.50;;;;;;10417568;28;20096;-46
2021/09/08 08:16:10;;;;;;;20.35;9.07;;;21.40;70.30;;;;;;10417436;28;20108;-46
2021/09/08 08:21:11;;;;;;;19.77;8.60;;;21.40;70.40;;;;;;10418054;28;20450;-47
2021/09/08 08:26:12;;;;;;;16.35;8.90;;;21.40;70.30;;;;;;10417363;28;20028;-46
2021/09/08 08:31:12;;;;;;;15.82;7.68;;;21.40;70.10;;;;;;10417271;28;20021;-47
2021/09/08 08:36:13;;;;;;;16.23;7.90;;;21.40;70.10;;;;;;10415797;28;20030;-49
2021/09/08 08:41:14;;;;;;;16.60;7.85;;;21.40;70.10;;;;;;10416230;28;20133;-47
2021/09/08 08:46:16;;;;;;;15.93;8.25;;;21.50;70.30;;;;;;10416943;28;20060;-48
2021/09/08 08:51:16;;;;;;;16.75;7.60;;;21.50;70.30;;;;;;10414903;28;20450;-46
2021/09/08 08:56:18;;;;;;;13.65;8.05;;;21.50;70.30;;;;;;10414880;28;20037;-50
2021/09/08 09:01:25;;;;;;;13.05;8.45;;;21.50;70.40;;;;;;10414757;28;20410;-49
2021/09/08 09:06:26;;;;;;;14.20;8.23;;;21.60;70.40;;;;;;10415779;28;20029;-48
2021/09/08 09:11:27;;;;;;;12.38;8.15;;;21.60;70.80;;;;;;10415723;28;20029;-49
2021/09/08 09:16:29;;;;;;;11.82;7.45;;;21.60;70.80;;;;;;10415324;28;20496;-46
2021/09/08 09:21:29;;;;;;;10.70;7.38;;;21.60;70.90;;;;;;10417762;28;20525;-50
2021/09/08 09:26:36;;;;;;;16.45;7.97;;;21.70;70.50;;;;;;10414957;28;20022;-49
2021/09/08 09:31:52;;;;;;;14.05;7.03;;;21.70;70.70;;;;;;10414738;28;20029;-48
2021/09/08 09:36:57;;;;;;;8.82;7.18;;;21.70;70.70;;;;;;10414844;28;20079;-51
2021/09/08 09:42:06;;;;;;;16.48;8.15;;;21.70;70.90;;;;;;10413242;28;20046;-48
2021/09/08 09:47:07;;;;;;;14.77;7.75;;;21.70;70.80;;;;;;10413849;28;20549;-47
2021/09/08 09:52:08;;;;;;;11.93;7.50;;;21.80;71.00;;;;;;10413478;28;20112;-49
2021/09/08 09:57:09;;;;;;;12.43;8.15;;;21.80;71.10;;;;;;10414440;28;20040;-47
2021/09/08 10:02:10;;;;;;;16.52;8.32;;;21.90;71.00;;;;;;10396153;28;20168;-49
2021/09/08 10:07:11;;;;;;;12.38;7.30;;;21.90;71.20;;;;;;10413705;28;20108;-49
2021/09/08 10:12:14;;;;;;;11.50;7.63;;;21.80;70.80;;;;;;10413263;28;20041;-47
2021/09/08 10:17:19;;;;;;;13.10;9.55;;;21.90;70.70;;;;;;10413001;28;20090;-48
2021/09/08 10:22:23;;;;;;;12.48;7.20;;;21.90;70.50;;;;;;10417149;28;20163;-48
2021/09/08 10:27:29;;;;;;;11.82;8.43;;;21.90;70.40;;;;;;10412881;28;20544;-47
2021/09/08 10:32:31;;;;;;;10.25;7.10;;;21.90;70.40;;;;;;10413893;28;20108;-48
2021/09/08 10:37:33;;;;;;;11.75;8.23;;;22.00;70.40;;;;;;10411909;28;20385;-46
2021/09/08 10:42:57;;;;;;;11.70;7.97;;;22.00;70.40;;;;;;10444484;28;20096;-48
2021/09/08 10:48:02;;;;;;;9.30;7.07;;;22.00;70.40;;;;;;10401959;28;20121;-46
2021/09/08 10:53:17;;;;;;;11.32;7.78;;;22.00;70.50;;;;;;10413364;28;20037;-51
2021/09/08 10:58:18;;;;;;;10.02;6.85;;;22.10;70.80;;;;;;10413554;28;20410;-47
2021/09/08 11:03:19;;;;;;;10.55;7.43;;;22.10;71.00;;;;;;10412856;28;20125;-45
2021/09/08 11:08:24;;;;;;;10.48;8.30;;;22.20;71.10;;;;;;10413128;28;20113;-47
2021/09/08 11:13:26;;;;;;;9.60;6.80;;;22.20;71.10;;;;;;10413089;28;20390;-49
2021/09/08 11:18:35;;;;;;;11.10;8.05;;;22.20;71.20;;;;;;10418606;28;20108;-45
2021/09/08 11:23:35;;;;;;;11.25;8.40;;;22.30;71.40;;;;;;10406674;28;20045;-46
2021/09/08 11:28:39;;;;;;;11.50;8.10;;;22.30;71.50;;;;;;10419925;28;20037;-47
2021/09/08 11:33:40;;;;;;;16.08;8.38;;;22.40;71.50;;;;;;10419626;28;20474;-46
2021/09/08 11:38:46;;;;;;;18.20;8.60;;;22.40;71.50;;;;;;10419161;28;20116;-52
2021/09/08 11:43:50;;;;;;;15.18;8.38;;;22.50;71.60;;;;;;10417582;28;20572;-47
2021/09/08 11:49:05;;;;;;;17.85;8.27;;;22.50;72.00;;;;;;10417815;28;20519;-51
2021/09/08 11:54:13;;;;;;;14.63;7.43;;;22.50;72.20;;;;;;10418717;28;20045;-46
2021/09/08 11:59:14;;;;;;;13.32;7.35;;;22.50;71.70;;;;;;10416347;28;20116;-45
2021/09/08 12:04:16;;;;;;;11.55;6.93;;;22.50;71.60;;;;;;10417811;28;20028;-45
2021/09/08 12:09:17;;;;;;;14.98;7.72;;;22.60;71.70;;;;;;10416976;28;20067;-48
2021/09/08 12:14:43;;;;;;;15.52;7.82;;;22.60;72.00;;;;;;10418077;28;20068;-46
2021/09/08 12:19:47;;;;;;;9.45;7.00;;;22.60;71.90;;;;;;10420429;28;20068;-46
2021/09/08 12:24:52;;;;;;;16.60;7.43;;;22.60;71.80;;;;;;10426576;28;20034;-51
2021/09/08 12:29:55;;;;;;;11.48;7.63;;;22.60;72.00;;;;;;10416923;28;20061;-48
2021/09/08 12:34:56;;;;;;;14.80;8.98;;;22.60;72.10;;;;;;10417394;28;20033;-49
2021/09/08 12:39:57;;;;;;;13.05;8.25;;;22.70;72.00;;;;;;10417262;28;20474;-46
2021/09/08 12:45:07;;;;;;;13.40;7.10;;;22.70;71.90;;;;;;10416654;28;20071;-51
2021/09/08 12:50:08;;;;;;;12.07;7.25;;;22.70;71.60;;;;;;10416918;28;20033;-45
2021/09/08 12:55:09;;;;;;;11.57;8.00;;;22.70;71.40;;;;;;10415122;28;20033;-49
2021/09/08 13:00:10;;;;;;;10.60;9.23;;;22.70;71.10;;;;;;10416328;28;20033;-46
2021/09/08 13:05:11;;;;;;;12.10;8.43;;;22.70;71.00;;;;;;10416181;28;20037;-48
2021/09/08 13:10:12;;;;;;;12.93;8.70;;;22.70;70.90;;;;;;10416130;28;20026;-46
2021/09/08 13:15:14;;;;;;;14.85;8.43;;;22.70;70.90;;;;;;10414523;28;20116;-46
2021/09/08 13:20:15;;;;;;;10.82;8.60;;;22.70;70.70;;;;;;10418044;28;20029;-46
2021/09/08 13:25:15;;;;;;;12.30;8.32;;;22.70;70.50;;;;;;10414434;28;20032;-47
2021/09/08 13:30:16;;;;;;;10.05;7.93;;;22.70;70.30;;;;;;10414249;28;20104;-48
2021/09/08 13:35:17;;;;;;;11.90;7.93;;;22.70;70.20;;;;;;10414930;28;20129;-52
2021/09/08 13:40:17;;;;;;;14.85;9.68;;;22.70;70.20;;;;;;10414312;28;20033;-52
2021/09/08 13:45:18;;;;;;;10.70;7.78;;;22.70;70.30;;;;;;10413797;28;20030;-52
2021/09/08 13:50:19;;;;;;;12.38;8.30;;;22.70;70.30;;;;;;10414590;28;20040;-50
2021/09/08 13:55:20;;;;;;;11.10;8.30;;;22.70;70.20;;;;;;10413848;28;20160;-49
2021/09/08 14:00:21;;;;;;;11.45;8.30;;;22.60;70.20;;;;;;10428733;28;20041;-53
2021/09/08 14:05:21;;;;;;;12.93;8.25;;;22.70;70.20;;;;;;10413902;28;20536;-48
2021/09/08 14:10:22;;;;;;;13.13;7.72;;;22.70;70.10;;;;;;10413760;28;20474;-48
2021/09/08 14:15:23;;;;;;;14.18;8.52;;;22.70;69.80;;;;;;10414059;28;20457;-48
2021/09/08 14:20:24;;;;;;;9.57;7.63;;;22.70;69.80;;;;;;10416187;28;20095;-48
2021/09/08 14:25:25;;;;;;;12.02;10.20;;;22.70;69.80;;;;;;10409393;28;20021;-49
2021/09/08 14:30:27;;;;;;;13.90;9.23;;;22.60;69.80;;;;;;10410346;28;20033;-48
2021/09/08 14:35:27;;;;;;;11.35;9.02;;;22.70;69.80;;;;;;10410751;28;20418;-48
2021/09/08 14:40:28;;;;;;;11.32;8.57;;;22.60;69.80;;;;;;10413084;28;20053;-47
2021/09/08 14:45:29;;;;;;;10.27;8.57;;;22.60;69.90;;;;;;10411313;28;20390;-48
2021/09/08 14:50:30;;;;;;;10.57;8.15;;;22.60;69.90;;;;;;10413674;28;20091;-48
2021/09/08 14:55:31;;;;;;;13.05;9.30;;;22.60;69.80;;;;;;10420587;28;20568;-48
2021/09/08 15:00:32;;;;;;;9.65;7.97;;;22.60;69.80;;;;;;10419070;28;20474;-49
2021/09/08 15:05:33;;;;;;;13.07;9.00;;;22.60;69.70;;;;;;10418819;28;20025;-50
2021/09/08 15:10:34;;;;;;;14.85;9.40;;;22.60;69.50;;;;;;10420066;28;20417;-47
2021/09/08 15:15:35;;;;;;;12.07;8.85;;;22.60;69.50;;;;;;10420036;28;20116;-46
2021/09/08 15:20:36;;;;;;;42.53;11.45;;;22.60;69.50;;;;;;10422508;28;20025;-49
2021/09/08 15:25:37;;;;;;;12.75;9.68;;;22.70;72.20;;;;;;10419935;28;20026;-50
2021/09/08 15:30:37;;;;;;;9.95;8.85;;;22.70;70.20;;;;;;10419245;28;20025;-51
2021/09/08 15:35:38;;;;;;;13.77;9.55;;;22.70;71.30;;;;;;10419614;28;20061;-52
2021/09/08 15:40:39;;;;;;;19.60;9.88;;;22.70;70.50;;;;;;10419411;28;20053;-51
2021/09/08 15:45:40;;;;;;;12.60;8.77;;;22.60;70.40;;;;;;10414452;28;20033;-49
2021/09/08 15:50:41;;;;;;;13.23;9.68;;;22.60;70.80;;;;;;10418464;28;20028;-52
2021/09/08 15:55:44;;;;;;;13.02;9.48;;;22.60;70.80;;;;;;10418464;28;20060;-50
2021/09/08 16:00:45;;;;;;;15.43;11.20;;;22.60;70.70;;;;;;10417617;28;20420;-49
2021/09/08 16:05:46;;;;;;;19.45;11.63;;;22.70;71.40;;;;;;10417429;28;20040;-47
2021/09/08 16:10:47;;;;;;;14.70;11.45;;;22.70;71.60;;;;;;10418655;28;20482;-52
2021/09/08 16:15:48;;;;;;;17.00;12.88;;;22.70;72.10;;;;;;10413199;28;20123;-49
2021/09/08 16:20:48;;;;;;;19.08;14.70;;;22.70;72.60;;;;;;10454989;28;20049;-52
2021/09/08 16:25:49;;;;;;;15.45;12.50;;;22.80;72.50;;;;;;10417346;28;20041;-52
2021/09/08 16:30:50;;;;;;;14.02;10.90;;;22.80;71.50;;;;;;10417189;28;20118;-53
2021/09/08 16:35:51;;;;;;;12.68;10.65;;;22.80;70.70;;;;;;10417294;28;20108;-52
2021/09/08 16:40:52;;;;;;;12.70;10.02;;;22.70;70.30;;;;;;10415628;28;20114;-52
2021/09/08 16:45:53;;;;;;;12.70;10.27;;;22.70;70.20;;;;;;10413304;28;20116;-50
2021/09/08 16:50:53;;;;;;;12.90;10.45;;;22.70;70.30;;;;;;10415201;28;20601;-53
2021/09/08 16:55:54;;;;;;;17.85;11.48;;;22.70;70.30;;;;;;10415279;28;20108;-48
2021/09/08 17:00:55;;;;;;;12.88;10.40;;;22.70;70.40;;;;;;10415617;28;20397;-51
2021/09/08 17:05:55;;;;;;;10.38;9.18;;;22.70;70.30;;;;;;10415128;28;20470;-50
2021/09/08 17:10:56;;;;;;;13.20;10.77;;;22.60;70.20;;;;;;10415870;28;20670;-54
2021/09/08 17:15:57;;;;;;;13.52;10.75;;;22.70;70.20;;;;;;10414337;28;20052;-47
2021/09/08 17:20:58;;;;;;;12.98;9.68;;;22.60;70.10;;;;;;10418221;28;20440;-48
2021/09/08 17:25:58;;;;;;;10.73;9.57;;;22.60;70.10;;;;;;10415123;28;20033;-47
2021/09/08 17:30:59;;;;;;;14.80;10.95;;;22.60;70.20;;;;;;10415384;28;20033;-51
2021/09/08 17:36:00;;;;;;;14.32;10.30;;;22.60;70.20;;;;;;10414780;28;20080;-47
2021/09/08 17:46:08;;;;;;;11.45;9.63;;;22.60;70.20;;;;;;10414545;28;20099;-48
2021/09/08 17:51:10;;;;;;;13.73;10.82;;;22.60;70.20;;;;;;10413029;28;20088;-48
2021/09/08 17:56:11;;;;;;;14.82;10.20;;;22.60;70.30;;;;;;10413974;28;20037;-47
2021/09/08 18:01:11;;;;;;;12.88;10.45;;;22.60;70.30;;;;;;10414602;28;20056;-51
2021/09/08 18:06:12;;;;;;;13.32;11.00;;;22.60;70.40;;;;;;10414311;28;20029;-47
2021/09/08 18:11:13;;;;;;;14.68;9.68;;;22.60;71.00;;;;;;10410557;28;20120;-52
2021/09/08 18:16:16;;;;;;;11.43;9.75;;;22.60;70.50;;;;;;10407158;28;20113;-50
2021/09/08 18:21:16;;;;;;;12.73;9.48;;;22.60;70.70;;;;;;10390645;28;20025;-50
2021/09/08 18:26:17;;;;;;;11.75;10.25;;;22.60;70.80;;;;;;10413669;28;20067;-48
2021/09/08 18:31:18;;;;;;;12.65;10.68;;;22.60;71.20;;;;;;10419132;28;20399;-49
2021/09/08 18:36:19;;;;;;;12.45;8.88;;;22.60;71.60;;;;;;10421329;28;20040;-48
2021/09/08 18:41:20;;;;;;;13.52;10.98;;;22.60;71.60;;;;;;10420153;28;20045;-48
2021/09/08 18:46:20;;;;;;;13.63;10.80;;;22.60;71.30;;;;;;10421711;28;20052;-48
2021/09/08 18:51:22;;;;;;;10.50;9.23;;;22.60;71.20;;;;;;10421520;28;20117;-52
2021/09/08 18:56:24;;;;;;;15.27;10.32;;;22.60;71.10;;;;;;10405241;28;20056;-49
2021/09/08 19:01:24;;;;;;;10.07;8.77;;;22.60;71.00;;;;;;10409593;28;20038;-47
2021/09/08 19:06:25;;;;;;;12.35;10.27;;;22.60;71.10;;;;;;10417153;28;20043;-49
2021/09/08 19:11:26;;;;;;;13.15;10.05;;;22.60;71.10;;;;;;10414547;28;20013;-49
2021/09/08 19:16:27;;;;;;;11.93;9.60;;;22.60;71.10;;;;;;10413146;28;20057;-47
2021/09/08 19:21:27;;;;;;;12.45;9.70;;;22.60;71.10;;;;;;10419603;28;20071;-48
2021/09/08 19:26:28;;;;;;;11.32;9.50;;;22.50;71.00;;;;;;10419415;28;20022;-49
2021/09/08 19:31:29;;;;;;;15.35;10.60;;;22.60;71.00;;;;;;10416447;28;20120;-49
2021/09/08 19:36:29;;;;;;;12.00;10.77;;;22.60;71.00;;;;;;10418968;28;20048;-51
2021/09/08 19:41:30;;;;;;;13.38;11.27;;;22.60;71.00;;;;;;10417351;28;20193;-48
2021/09/08 19:46:31;;;;;;;12.18;10.75;;;22.60;70.90;;;;;;10418407;28;20043;-48
2021/09/08 19:51:32;;;;;;;12.35;11.00;;;22.60;70.90;;;;;;10416887;28;20025;-48
2021/09/08 19:56:32;;;;;;;14.27;10.45;;;22.50;70.90;;;;;;10414843;28;20048;-47
2021/09/08 20:01:33;;;;;;;14.02;11.77;;;22.50;70.80;;;;;;10414378;28;20021;-49
2021/09/08 20:06:34;;;;;;;12.82;11.30;;;22.50;70.90;;;;;;10414682;28;20215;-49
2021/09/08 20:11:34;;;;;;;12.00;10.77;;;22.50;70.90;;;;;;10414547;28;20056;-47
2021/09/08 20:16:35;;;;;;;14.70;11.25;;;22.50;70.90;;;;;;10417401;28;20105;-48
2021/09/08 20:21:36;;;;;;;12.63;10.40;;;22.50;70.90;;;;;;10420064;28;20053;-47
2021/09/08 20:26:36;;;;;;;12.35;11.07;;;22.50;70.90;;;;;;10417245;28;20424;-49
2021/09/08 20:31:37;;;;;;;16.48;10.48;;;22.50;70.90;;;;;;10416809;28;20545;-47
2021/09/08 20:36:38;;;;;;;13.50;11.32;;;22.50;70.80;;;;;;10417009;28;20044;-47
2021/09/08 20:41:39;;;;;;;12.15;10.95;;;22.50;70.80;;;;;;10416245;28;20049;-48
2021/09/08 20:46:40;;;;;;;12.93;11.45;;;22.50;70.80;;;;;;10416775;28;20075;-49
2021/09/08 20:51:41;;;;;;;12.23;10.95;;;22.50;70.80;;;;;;10415314;28;20037;-47
2021/09/08 20:56:42;;;;;;;12.40;10.25;;;22.50;70.70;;;;;;10415751;28;20029;-50
2021/09/08 21:01:42;;;;;;;12.13;10.82;;;22.50;70.70;;;;;;10415756;28;20087;-51
2021/09/08 21:06:43;;;;;;;11.73;10.63;;;22.50;70.70;;;;;;10413924;28;20061;-51
2021/09/08 21:11:44;;;;;;;12.55;10.55;;;22.50;70.70;;;;;;10415521;28;20099;-48
2021/09/08 21:16:45;;;;;;;12.60;10.90;;;22.50;70.70;;;;;;10415042;28;20057;-47
2021/09/08 21:21:46;;;;;;;12.48;11.18;;;22.50;70.70;;;;;;10417202;28;20490;-48
2021/09/08 21:26:47;;;;;;;13.40;11.27;;;22.40;70.60;;;;;;10415204;28;20482;-48
2021/09/08 21:31:49;;;;;;;12.27;10.45;;;22.40;70.70;;;;;;10412878;28;20389;-48
2021/09/08 21:36:49;;;;;;;11.63;10.43;;;22.40;70.60;;;;;;10414319;28;20112;-51
2021/09/08 21:41:50;;;;;;;11.95;10.65;;;22.40;70.60;;;;;;10413917;28;20041;-49
2021/09/08 21:46:51;;;;;;;11.48;10.35;;;22.40;70.60;;;;;;10429631;28;20115;-48
2021/09/08 21:51:51;;;;;;;10.40;9.30;;;22.40;70.60;;;;;;10412986;28;20155;-49
2021/09/08 21:56:52;;;;;;;11.70;10.55;;;22.40;70.60;;;;;;10413485;28;20033;-49
2021/09/08 22:01:53;;;;;;;15.90;10.30;;;22.40;70.60;;;;;;10413267;28;20095;-48
2021/09/08 22:06:54;;;;;;;12.20;10.95;;;22.40;70.60;;;;;;10414610;28;20548;-49
2021/09/08 22:11:54;;;;;;;12.73;10.30;;;22.40;70.60;;;;;;10413921;28;20486;-48
2021/09/08 22:16:55;;;;;;;12.40;10.20;;;22.40;70.60;;;;;;10413724;28;20108;-51
2021/09/08 22:21:56;;;;;;;11.63;10.52;;;22.40;70.60;;;;;;10414437;28;20116;-49
2021/09/08 22:26:57;;;;;;;10.77;9.68;;;22.40;70.50;;;;;;10413425;28;20104;-49
2021/09/08 22:31:58;;;;;;;11.93;10.73;;;22.40;70.50;;;;;;10412276;28;20115;-50
2021/09/08 22:36:59;;;;;;;11.88;10.68;;;22.40;70.50;;;;;;10412822;28;20101;-51
2021/09/08 22:42:00;;;;;;;14.25;10.35;;;22.40;70.50;;;;;;10411273;28;20123;-47
2021/09/08 22:47:00;;;;;;;12.02;10.82;;;22.40;70.40;;;;;;10412745;28;20107;-53
2021/09/08 22:52:01;;;;;;;11.48;10.20;;;22.40;70.40;;;;;;10412056;28;20073;-47
2021/09/08 22:57:02;;;;;;;11.60;10.45;;;22.40;70.40;;;;;;10412735;28;20381;-50
2021/09/08 23:02:03;;;;;;;11.70;10.60;;;22.40;70.40;;;;;;10412010;28;20116;-48
2021/09/08 23:07:04;;;;;;;11.52;10.43;;;22.40;70.30;;;;;;10412686;28;20034;-51
2021/09/08 23:12:05;;;;;;;11.52;10.32;;;22.30;70.30;;;;;;10412497;28;20029;-47
2021/09/08 23:17:06;;;;;;;11.07;9.98;;;22.30;70.20;;;;;;10420011;28;20168;-52
2021/09/08 23:22:07;;;;;;;10.32;9.32;;;22.30;70.30;;;;;;10422366;28;20042;-47
2021/09/08 23:27:08;;;;;;;11.23;10.23;;;22.30;70.20;;;;;;10419270;28;20076;-52
2021/09/08 23:32:09;;;;;;;12.52;11.23;;;22.30;70.20;;;;;;10418234;28;20045;-52
2021/09/08 23:37:09;;;;;;;11.40;10.30;;;22.30;70.10;;;;;;10418881;28;20152;-50
2021/09/08 23:42:10;;;;;;;12.25;11.05;;;22.30;70.10;;;;;;10418168;28;20049;-47
2021/09/08 23:47:11;;;;;;;10.48;9.38;;;22.30;70.10;;;;;;10417352;28;20036;-50
2021/09/08 23:52:12;;;;;;;11.65;10.48;;;22.30;70.00;;;;;;10418082;28;20075;-46
2021/09/08 23:57:13;;;;;;;11.60;9.90;;;22.30;70.00;;;;;;10418835;28;20029;-53
